sensor_id;sensor_type;location;lat;lon;timestamp;P1;durP1;ratioP1;P2;durP2;ratioP2
61907;SDS011;47864;52.526;19.672;2023-04-08T00:01:31;15.55;;;10.05;;
61907;SDS011;47864;52.526;19.672;2023-04-08T00:03:32;17.50;;;10.75;;
61907;SDS011;47864;52.526;19.672;2023-04-08T00:05:34;16.98;;;10.43;;
61907;SDS011;47864;52.526;19.672;2023-04-08T00:07:36;18.25;;;11.00;;
61907;SDS011;47864;52.526;19.672;2023-04-08T00:09:37;16.95;;;11.30;;
61907;SDS011;47864;52.526;19.672;2023-04-08T00:11:39;20.08;;;12.73;;
61907;SDS011;47864;52.526;19.672;2023-04-08T00:13:41;18.67;;;11.75;;
61907;SDS011;47864;52.526;19.672;2023-04-08T00:15:42;22.67;;;12.88;;
61907;SDS011;47864;52.526;19.672;2023-04-08T00:17:43;22.33;;;12.88;;
61907;SDS011;47864;52.526;19.672;2023-04-08T00:19:45;22.05;;;13.20;;
61907;SDS011;47864;52.526;19.672;2023-04-08T00:21:46;20.75;;;12.43;;
61907;SDS011;47864;52.526;19.672;2023-04-08T00:23:48;21.42;;;12.98;;
61907;SDS011;47864;52.526;19.672;2023-04-08T00:25:50;20.08;;;12.95;;
61907;SDS011;47864;52.526;19.672;2023-04-08T00:27:51;22.02;;;13.35;;
61907;SDS011;47864;52.526;19.672;2023-04-08T00:29:53;21.85;;;13.60;;
61907;SDS011;47864;52.526;19.672;2023-04-08T00:31:55;20.67;;;13.23;;
61907;SDS011;47864;52.526;19.672;2023-04-08T00:33:57;18.80;;;12.27;;
61907;SDS011;47864;52.526;19.672;2023-04-08T00:35:59;19.25;;;12.30;;
61907;SDS011;47864;52.526;19.672;2023-04-08T00:38:00;20.05;;;12.57;;
61907;SDS011;47864;52.526;19.672;2023-04-08T00:40:02;19.23;;;12.68;;
61907;SDS011;47864;52.526;19.672;2023-04-08T00:42:03;20.77;;;12.50;;
61907;SDS011;47864;52.526;19.672;2023-04-08T00:44:05;15.50;;;10.75;;
61907;SDS011;47864;52.526;19.672;2023-04-08T00:46:06;17.83;;;11.43;;
61907;SDS011;47864;52.526;19.672;2023-04-08T00:48:09;19.03;;;11.20;;
61907;SDS011;47864;52.526;19.672;2023-04-08T00:50:11;19.52;;;11.68;;
61907;SDS011;47864;52.526;19.672;2023-04-08T00:52:12;18.52;;;10.75;;
61907;SDS011;47864;52.526;19.672;2023-04-08T00:54:14;18.55;;;12.00;;
61907;SDS011;47864;52.526;19.672;2023-04-08T00:56:15;21.00;;;11.82;;
61907;SDS011;47864;52.526;19.672;2023-04-08T00:58:17;17.75;;;11.65;;
61907;SDS011;47864;52.526;19.672;2023-04-08T01:00:18;17.63;;;11.20;;
61907;SDS011;47864;52.526;19.672;2023-04-08T01:07:04;16.40;;;10.95;;
61907;SDS011;47864;52.526;19.672;2023-04-08T01:09:15;17.50;;;11.60;;
61907;SDS011;47864;52.526;19.672;2023-04-08T01:11:19;16.35;;;12.02;;
61907;SDS011;47864;52.526;19.672;2023-04-08T01:13:21;18.98;;;12.52;;
61907;SDS011;47864;52.526;19.672;2023-04-08T01:15:27;16.92;;;11.95;;
61907;SDS011;47864;52.526;19.672;2023-04-08T01:17:31;20.35;;;12.13;;
61907;SDS011;47864;52.526;19.672;2023-04-08T01:19:34;16.83;;;12.03;;
61907;SDS011;47864;52.526;19.672;2023-04-08T01:21:39;19.77;;;11.27;;
61907;SDS011;47864;52.526;19.672;2023-04-08T01:23:52;19.20;;;11.18;;
61907;SDS011;47864;52.526;19.672;2023-04-08T01:25:54;19.63;;;12.38;;
61907;SDS011;47864;52.526;19.672;2023-04-08T01:27:58;20.33;;;12.23;;
61907;SDS011;47864;52.526;19.672;2023-04-08T01:30:04;19.60;;;11.68;;
61907;SDS011;47864;52.526;19.672;2023-04-08T01:32:07;18.80;;;12.27;;
61907;SDS011;47864;52.526;19.672;2023-04-08T01:34:10;19.48;;;12.02;;
61907;SDS011;47864;52.526;19.672;2023-04-08T01:38:17;19.40;;;13.07;;
61907;SDS011;47864;52.526;19.672;2023-04-08T01:40:20;19.88;;;12.52;;
61907;SDS011;47864;52.526;19.672;2023-04-08T01:42:23;20.33;;;13.48;;
61907;SDS011;47864;52.526;19.672;2023-04-08T01:44:25;20.15;;;13.65;;
61907;SDS011;47864;52.526;19.672;2023-04-08T01:46:28;24.00;;;14.40;;
61907;SDS011;47864;52.526;19.672;2023-04-08T01:48:31;51.97;;;26.02;;
61907;SDS011;47864;52.526;19.672;2023-04-08T01:50:34;64.40;;;32.33;;
61907;SDS011;47864;52.526;19.672;2023-04-08T01:52:36;61.45;;;32.67;;
61907;SDS011;47864;52.526;19.672;2023-04-08T01:54:39;38.90;;;23.70;;
61907;SDS011;47864;52.526;19.672;2023-04-08T01:56:41;32.83;;;20.27;;
61907;SDS011;47864;52.526;19.672;2023-04-08T01:58:46;29.58;;;18.83;;
61907;SDS011;47864;52.526;19.672;2023-04-08T02:00:51;24.70;;;16.90;;
61907;SDS011;47864;52.526;19.672;2023-04-08T02:02:55;25.65;;;16.75;;
61907;SDS011;47864;52.526;19.672;2023-04-08T02:04:58;23.67;;;15.83;;
61907;SDS011;47864;52.526;19.672;2023-04-08T02:07:00;23.92;;;15.60;;
61907;SDS011;47864;52.526;19.672;2023-04-08T02:09:01;24.00;;;16.00;;
61907;SDS011;47864;52.526;19.672;2023-04-08T02:11:03;23.08;;;15.82;;
61907;SDS011;47864;52.526;19.672;2023-04-08T02:13:05;24.20;;;16.25;;
61907;SDS011;47864;52.526;19.672;2023-04-08T02:15:07;25.08;;;16.52;;
61907;SDS011;47864;52.526;19.672;2023-04-08T02:17:10;28.50;;;17.20;;
61907;SDS011;47864;52.526;19.672;2023-04-08T02:19:29;26.48;;;17.02;;
61907;SDS011;47864;52.526;19.672;2023-04-08T02:21:37;25.90;;;16.17;;
61907;SDS011;47864;52.526;19.672;2023-04-08T02:23:45;25.23;;;16.52;;
61907;SDS011;47864;52.526;19.672;2023-04-08T02:25:49;24.85;;;16.27;;
61907;SDS011;47864;52.526;19.672;2023-04-08T02:27:53;23.95;;;15.98;;
61907;SDS011;47864;52.526;19.672;2023-04-08T02:29:57;24.10;;;16.88;;
61907;SDS011;47864;52.526;19.672;2023-04-08T02:32:00;25.97;;;16.87;;
61907;SDS011;47864;52.526;19.672;2023-04-08T02:34:03;25.58;;;16.17;;
61907;SDS011;47864;52.526;19.672;2023-04-08T02:36:07;27.90;;;16.67;;
61907;SDS011;47864;52.526;19.672;2023-04-08T02:38:11;26.38;;;16.38;;
61907;SDS011;47864;52.526;19.672;2023-04-08T02:40:31;26.02;;;16.55;;
61907;SDS011;47864;52.526;19.672;2023-04-08T02:42:34;26.88;;;16.90;;
61907;SDS011;47864;52.526;19.672;2023-04-08T02:44:35;27.40;;;17.17;;
61907;SDS011;47864;52.526;19.672;2023-04-08T02:46:37;28.30;;;16.92;;
61907;SDS011;47864;52.526;19.672;2023-04-08T02:48:38;26.55;;;16.75;;
61907;SDS011;47864;52.526;19.672;2023-04-08T02:50:40;26.65;;;16.33;;
61907;SDS011;47864;52.526;19.672;2023-04-08T02:52:41;26.40;;;16.80;;
61907;SDS011;47864;52.526;19.672;2023-04-08T02:54:43;26.48;;;16.83;;
61907;SDS011;47864;52.526;19.672;2023-04-08T02:56:44;26.38;;;16.25;;
61907;SDS011;47864;52.526;19.672;2023-04-08T02:58:46;27.75;;;17.42;;
61907;SDS011;47864;52.526;19.672;2023-04-08T03:00:48;26.58;;;17.23;;
61907;SDS011;47864;52.526;19.672;2023-04-08T03:02:49;30.15;;;16.23;;
61907;SDS011;47864;52.526;19.672;2023-04-08T03:04:52;32.63;;;17.70;;
61907;SDS011;47864;52.526;19.672;2023-04-08T03:06:53;44.90;;;19.02;;
61907;SDS011;47864;52.526;19.672;2023-04-08T03:08:54;32.60;;;17.13;;
61907;SDS011;47864;52.526;19.672;2023-04-08T03:10:56;34.20;;;15.70;;
61907;SDS011;47864;52.526;19.672;2023-04-08T03:12:58;32.15;;;16.60;;
61907;SDS011;47864;52.526;19.672;2023-04-08T03:14:59;29.65;;;15.90;;
61907;SDS011;47864;52.526;19.672;2023-04-08T03:17:01;29.75;;;16.08;;
61907;SDS011;47864;52.526;19.672;2023-04-08T03:19:03;30.30;;;15.43;;
61907;SDS011;47864;52.526;19.672;2023-04-08T03:21:04;29.88;;;16.00;;
61907;SDS011;47864;52.526;19.672;2023-04-08T03:23:05;33.88;;;17.70;;
61907;SDS011;47864;52.526;19.672;2023-04-08T03:25:07;41.47;;;19.23;;
61907;SDS011;47864;52.526;19.672;2023-04-08T03:27:09;42.13;;;20.08;;
61907;SDS011;47864;52.526;19.672;2023-04-08T03:29:11;36.30;;;18.50;;
61907;SDS011;47864;52.526;19.672;2023-04-08T03:31:12;28.48;;;15.90;;
61907;SDS011;47864;52.526;19.672;2023-04-08T03:33:14;26.58;;;15.68;;
61907;SDS011;47864;52.526;19.672;2023-04-08T03:35:15;26.80;;;15.45;;
61907;SDS011;47864;52.526;19.672;2023-04-08T03:37:17;28.05;;;15.30;;
61907;SDS011;47864;52.526;19.672;2023-04-08T03:39:19;25.77;;;14.38;;
61907;SDS011;47864;52.526;19.672;2023-04-08T03:41:20;23.02;;;13.63;;
61907;SDS011;47864;52.526;19.672;2023-04-08T03:43:22;25.25;;;14.85;;
61907;SDS011;47864;52.526;19.672;2023-04-08T03:45:23;26.67;;;15.30;;
61907;SDS011;47864;52.526;19.672;2023-04-08T03:47:25;26.40;;;14.88;;
61907;SDS011;47864;52.526;19.672;2023-04-08T03:49:27;29.88;;;16.92;;
61907;SDS011;47864;52.526;19.672;2023-04-08T03:51:28;26.52;;;15.27;;
61907;SDS011;47864;52.526;19.672;2023-04-08T03:53:30;26.50;;;15.10;;
61907;SDS011;47864;52.526;19.672;2023-04-08T03:55:31;27.08;;;15.57;;
61907;SDS011;47864;52.526;19.672;2023-04-08T03:57:33;26.67;;;15.70;;
61907;SDS011;47864;52.526;19.672;2023-04-08T03:59:34;26.70;;;16.05;;
61907;SDS011;47864;52.526;19.672;2023-04-08T04:01:36;25.00;;;14.23;;
61907;SDS011;47864;52.526;19.672;2023-04-08T04:03:37;25.92;;;14.60;;
61907;SDS011;47864;52.526;19.672;2023-04-08T04:05:39;26.38;;;15.25;;
61907;SDS011;47864;52.526;19.672;2023-04-08T04:07:41;25.17;;;14.95;;
61907;SDS011;47864;52.526;19.672;2023-04-08T04:09:42;28.35;;;15.88;;
61907;SDS011;47864;52.526;19.672;2023-04-08T04:11:43;28.35;;;17.02;;
61907;SDS011;47864;52.526;19.672;2023-04-08T04:13:45;31.65;;;18.75;;
61907;SDS011;47864;52.526;19.672;2023-04-08T04:15:47;33.40;;;19.75;;
61907;SDS011;47864;52.526;19.672;2023-04-08T04:17:48;34.83;;;19.33;;
61907;SDS011;47864;52.526;19.672;2023-04-08T04:19:50;33.58;;;18.80;;
61907;SDS011;47864;52.526;19.672;2023-04-08T04:21:52;28.88;;;17.20;;
61907;SDS011;47864;52.526;19.672;2023-04-08T04:23:53;29.10;;;17.50;;
61907;SDS011;47864;52.526;19.672;2023-04-08T04:25:55;28.98;;;15.35;;
61907;SDS011;47864;52.526;19.672;2023-04-08T04:27:56;25.02;;;15.23;;
61907;SDS011;47864;52.526;19.672;2023-04-08T04:29:59;27.98;;;15.85;;
61907;SDS011;47864;52.526;19.672;2023-04-08T04:32:01;22.80;;;14.75;;
61907;SDS011;47864;52.526;19.672;2023-04-08T04:34:02;24.27;;;15.35;;
61907;SDS011;47864;52.526;19.672;2023-04-08T04:36:04;31.33;;;19.30;;
61907;SDS011;47864;52.526;19.672;2023-04-08T04:38:05;25.17;;;15.98;;
61907;SDS011;47864;52.526;19.672;2023-04-08T04:40:07;26.17;;;16.20;;
61907;SDS011;47864;52.526;19.672;2023-04-08T04:42:09;30.25;;;17.77;;
61907;SDS011;47864;52.526;19.672;2023-04-08T04:44:10;26.98;;;14.38;;
61907;SDS011;47864;52.526;19.672;2023-04-08T04:46:12;26.58;;;16.05;;
61907;SDS011;47864;52.526;19.672;2023-04-08T04:48:13;29.15;;;17.70;;
61907;SDS011;47864;52.526;19.672;2023-04-08T04:50:15;28.23;;;16.95;;
61907;SDS011;47864;52.526;19.672;2023-04-08T04:52:16;36.75;;;21.42;;
61907;SDS011;47864;52.526;19.672;2023-04-08T04:54:18;67.00;;;44.97;;
61907;SDS011;47864;52.526;19.672;2023-04-08T04:56:19;32.05;;;19.75;;
61907;SDS011;47864;52.526;19.672;2023-04-08T04:58:21;30.02;;;17.58;;
61907;SDS011;47864;52.526;19.672;2023-04-08T05:00:22;32.20;;;19.95;;
61907;SDS011;47864;52.526;19.672;2023-04-08T05:02:24;27.42;;;16.30;;
61907;SDS011;47864;52.526;19.672;2023-04-08T05:04:26;29.58;;;19.02;;
61907;SDS011;47864;52.526;19.672;2023-04-08T05:06:28;31.00;;;20.23;;
61907;SDS011;47864;52.526;19.672;2023-04-08T05:08:29;27.92;;;16.52;;
61907;SDS011;47864;52.526;19.672;2023-04-08T05:10:31;27.63;;;17.92;;
61907;SDS011;47864;52.526;19.672;2023-04-08T05:12:33;26.58;;;15.05;;
61907;SDS011;47864;52.526;19.672;2023-04-08T05:14:34;26.13;;;16.65;;
61907;SDS011;47864;52.526;19.672;2023-04-08T05:16:36;26.50;;;17.02;;
61907;SDS011;47864;52.526;19.672;2023-04-08T05:18:38;24.00;;;15.45;;
61907;SDS011;47864;52.526;19.672;2023-04-08T05:20:39;24.85;;;15.93;;
61907;SDS011;47864;52.526;19.672;2023-04-08T05:22:41;32.60;;;19.25;;
61907;SDS011;47864;52.526;19.672;2023-04-08T05:24:42;31.90;;;19.38;;
61907;SDS011;47864;52.526;19.672;2023-04-08T05:26:44;21.52;;;13.82;;
61907;SDS011;47864;52.526;19.672;2023-04-08T05:28:45;20.40;;;12.98;;
61907;SDS011;47864;52.526;19.672;2023-04-08T05:30:48;22.42;;;14.18;;
61907;SDS011;47864;52.526;19.672;2023-04-08T05:32:50;22.33;;;14.25;;
61907;SDS011;47864;52.526;19.672;2023-04-08T05:34:52;20.38;;;13.32;;
61907;SDS011;47864;52.526;19.672;2023-04-08T05:36:53;22.73;;;13.68;;
61907;SDS011;47864;52.526;19.672;2023-04-08T05:38:55;20.02;;;12.60;;
61907;SDS011;47864;52.526;19.672;2023-04-08T05:40:56;20.60;;;13.55;;
61907;SDS011;47864;52.526;19.672;2023-04-08T05:42:58;19.15;;;12.55;;
61907;SDS011;47864;52.526;19.672;2023-04-08T05:44:59;22.50;;;12.65;;
61907;SDS011;47864;52.526;19.672;2023-04-08T05:47:01;21.30;;;13.45;;
61907;SDS011;47864;52.526;19.672;2023-04-08T05:49:02;20.48;;;13.00;;
61907;SDS011;47864;52.526;19.672;2023-04-08T05:51:04;18.02;;;12.07;;
61907;SDS011;47864;52.526;19.672;2023-04-08T05:53:05;19.85;;;12.20;;
61907;SDS011;47864;52.526;19.672;2023-04-08T05:55:07;17.73;;;12.50;;
61907;SDS011;47864;52.526;19.672;2023-04-08T05:57:09;18.90;;;12.82;;
61907;SDS011;47864;52.526;19.672;2023-04-08T05:59:10;20.42;;;12.57;;
61907;SDS011;47864;52.526;19.672;2023-04-08T06:01:12;20.95;;;13.43;;
61907;SDS011;47864;52.526;19.672;2023-04-08T06:03:14;21.58;;;14.02;;
61907;SDS011;47864;52.526;19.672;2023-04-08T06:05:18;24.20;;;14.50;;
61907;SDS011;47864;52.526;19.672;2023-04-08T06:07:19;23.45;;;14.52;;
61907;SDS011;47864;52.526;19.672;2023-04-08T06:09:21;28.42;;;17.67;;
61907;SDS011;47864;52.526;19.672;2023-04-08T06:11:22;20.08;;;13.02;;
61907;SDS011;47864;52.526;19.672;2023-04-08T06:13:24;20.60;;;13.95;;
61907;SDS011;47864;52.526;19.672;2023-04-08T06:15:26;28.65;;;19.58;;
61907;SDS011;47864;52.526;19.672;2023-04-08T06:17:27;20.58;;;14.75;;
61907;SDS011;47864;52.526;19.672;2023-04-08T06:19:29;22.02;;;14.35;;
61907;SDS011;47864;52.526;19.672;2023-04-08T06:21:30;24.75;;;15.27;;
61907;SDS011;47864;52.526;19.672;2023-04-08T06:23:32;20.52;;;12.77;;
61907;SDS011;47864;52.526;19.672;2023-04-08T06:25:33;20.85;;;12.65;;
61907;SDS011;47864;52.526;19.672;2023-04-08T06:27:35;17.20;;;12.32;;
61907;SDS011;47864;52.526;19.672;2023-04-08T06:29:36;19.95;;;13.57;;
61907;SDS011;47864;52.526;19.672;2023-04-08T06:31:38;20.25;;;12.95;;
61907;SDS011;47864;52.526;19.672;2023-04-08T06:33:40;19.02;;;12.88;;
61907;SDS011;47864;52.526;19.672;2023-04-08T06:35:41;23.05;;;13.68;;
61907;SDS011;47864;52.526;19.672;2023-04-08T06:37:43;28.13;;;14.20;;
61907;SDS011;47864;52.526;19.672;2023-04-08T06:39:44;23.08;;;13.40;;
61907;SDS011;47864;52.526;19.672;2023-04-08T06:41:46;25.45;;;14.07;;
61907;SDS011;47864;52.526;19.672;2023-04-08T06:43:47;17.65;;;11.50;;
61907;SDS011;47864;52.526;19.672;2023-04-08T06:45:49;17.63;;;11.48;;
61907;SDS011;47864;52.526;19.672;2023-04-08T06:47:50;21.55;;;11.38;;
61907;SDS011;47864;52.526;19.672;2023-04-08T06:49:52;17.00;;;10.70;;
61907;SDS011;47864;52.526;19.672;2023-04-08T06:51:54;17.58;;;11.05;;
61907;SDS011;47864;52.526;19.672;2023-04-08T06:53:55;15.88;;;11.20;;
61907;SDS011;47864;52.526;19.672;2023-04-08T06:55:57;17.40;;;11.02;;
61907;SDS011;47864;52.526;19.672;2023-04-08T06:57:58;16.77;;;11.02;;
61907;SDS011;47864;52.526;19.672;2023-04-08T06:59:59;16.08;;;10.95;;
61907;SDS011;47864;52.526;19.672;2023-04-08T07:02:01;19.27;;;11.48;;
61907;SDS011;47864;52.526;19.672;2023-04-08T07:04:03;14.95;;;10.57;;
61907;SDS011;47864;52.526;19.672;2023-04-08T07:06:04;15.07;;;10.38;;
61907;SDS011;47864;52.526;19.672;2023-04-08T07:08:06;14.23;;;9.65;;
61907;SDS011;47864;52.526;19.672;2023-04-08T07:10:08;13.07;;;8.15;;
61907;SDS011;47864;52.526;19.672;2023-04-08T07:12:11;15.23;;;9.63;;
61907;SDS011;47864;52.526;19.672;2023-04-08T07:14:13;14.20;;;10.45;;
61907;SDS011;47864;52.526;19.672;2023-04-08T07:16:14;17.40;;;11.00;;
61907;SDS011;47864;52.526;19.672;2023-04-08T07:18:16;17.75;;;11.07;;
61907;SDS011;47864;52.526;19.672;2023-04-08T07:20:18;17.70;;;10.60;;
61907;SDS011;47864;52.526;19.672;2023-04-08T07:22:19;17.60;;;12.13;;
61907;SDS011;47864;52.526;19.672;2023-04-08T07:24:21;18.88;;;12.27;;
61907;SDS011;47864;52.526;19.672;2023-04-08T07:26:22;15.75;;;10.88;;
61907;SDS011;47864;52.526;19.672;2023-04-08T07:28:24;15.38;;;10.80;;
61907;SDS011;47864;52.526;19.672;2023-04-08T07:30:25;15.52;;;10.48;;
61907;SDS011;47864;52.526;19.672;2023-04-08T07:32:27;19.13;;;12.13;;
61907;SDS011;47864;52.526;19.672;2023-04-08T07:34:29;15.65;;;10.50;;
61907;SDS011;47864;52.526;19.672;2023-04-08T07:36:30;17.35;;;11.38;;
61907;SDS011;47864;52.526;19.672;2023-04-08T07:38:32;18.50;;;11.50;;
61907;SDS011;47864;52.526;19.672;2023-04-08T07:40:33;17.55;;;11.48;;
61907;SDS011;47864;52.526;19.672;2023-04-08T07:42:35;23.00;;;13.43;;
61907;SDS011;47864;52.526;19.672;2023-04-08T07:44:36;16.83;;;11.05;;
61907;SDS011;47864;52.526;19.672;2023-04-08T07:46:38;14.95;;;10.07;;
61907;SDS011;47864;52.526;19.672;2023-04-08T07:48:40;20.90;;;13.75;;
61907;SDS011;47864;52.526;19.672;2023-04-08T07:50:41;13.98;;;9.25;;
61907;SDS011;47864;52.526;19.672;2023-04-08T07:53:03;14.00;;;9.30;;
61907;SDS011;47864;52.526;19.672;2023-04-08T07:55:04;13.35;;;9.05;;
61907;SDS011;47864;52.526;19.672;2023-04-08T07:57:06;14.55;;;10.13;;
61907;SDS011;47864;52.526;19.672;2023-04-08T07:59:08;13.90;;;9.15;;
61907;SDS011;47864;52.526;19.672;2023-04-08T08:01:18;14.43;;;9.35;;
61907;SDS011;47864;52.526;19.672;2023-04-08T08:03:21;15.90;;;10.75;;
61907;SDS011;47864;52.526;19.672;2023-04-08T08:05:23;31.55;;;19.95;;
61907;SDS011;47864;52.526;19.672;2023-04-08T08:07:25;15.52;;;10.90;;
61907;SDS011;47864;52.526;19.672;2023-04-08T08:09:26;13.13;;;9.88;;
61907;SDS011;47864;52.526;19.672;2023-04-08T08:11:28;14.25;;;9.02;;
61907;SDS011;47864;52.526;19.672;2023-04-08T08:13:29;16.17;;;9.75;;
61907;SDS011;47864;52.526;19.672;2023-04-08T08:15:31;16.08;;;10.00;;
61907;SDS011;47864;52.526;19.672;2023-04-08T08:17:33;13.57;;;9.15;;
61907;SDS011;47864;52.526;19.672;2023-04-08T08:19:34;14.77;;;9.93;;
61907;SDS011;47864;52.526;19.672;2023-04-08T08:21:36;14.90;;;10.15;;
61907;SDS011;47864;52.526;19.672;2023-04-08T08:23:37;14.05;;;9.65;;
61907;SDS011;47864;52.526;19.672;2023-04-08T08:25:39;21.23;;;12.10;;
61907;SDS011;47864;52.526;19.672;2023-04-08T08:27:40;19.85;;;12.32;;
61907;SDS011;47864;52.526;19.672;2023-04-08T08:29:42;21.17;;;14.38;;
61907;SDS011;47864;52.526;19.672;2023-04-08T08:31:43;16.38;;;9.77;;
61907;SDS011;47864;52.526;19.672;2023-04-08T08:33:45;16.02;;;10.48;;
61907;SDS011;47864;52.526;19.672;2023-04-08T08:35:46;16.23;;;9.98;;
61907;SDS011;47864;52.526;19.672;2023-04-08T08:37:48;14.85;;;9.98;;
61907;SDS011;47864;52.526;19.672;2023-04-08T08:39:49;13.27;;;9.35;;
61907;SDS011;47864;52.526;19.672;2023-04-08T08:41:51;15.15;;;10.25;;
61907;SDS011;47864;52.526;19.672;2023-04-08T08:43:52;15.60;;;10.00;;
61907;SDS011;47864;52.526;19.672;2023-04-08T08:45:54;15.60;;;10.02;;
61907;SDS011;47864;52.526;19.672;2023-04-08T08:47:56;14.18;;;9.93;;
61907;SDS011;47864;52.526;19.672;2023-04-08T08:49:57;14.57;;;8.98;;
61907;SDS011;47864;52.526;19.672;2023-04-08T08:51:59;17.80;;;10.57;;
61907;SDS011;47864;52.526;19.672;2023-04-08T08:54:01;15.73;;;9.75;;
61907;SDS011;47864;52.526;19.672;2023-04-08T08:56:07;14.68;;;9.85;;
61907;SDS011;47864;52.526;19.672;2023-04-08T08:58:12;13.85;;;9.48;;
61907;SDS011;47864;52.526;19.672;2023-04-08T09:00:14;14.23;;;9.43;;
61907;SDS011;47864;52.526;19.672;2023-04-08T09:02:25;14.27;;;9.82;;
61907;SDS011;47864;52.526;19.672;2023-04-08T09:04:30;16.92;;;11.02;;
61907;SDS011;47864;52.526;19.672;2023-04-08T09:06:32;13.70;;;9.82;;
61907;SDS011;47864;52.526;19.672;2023-04-08T09:08:34;13.10;;;9.43;;
61907;SDS011;47864;52.526;19.672;2023-04-08T09:10:37;14.13;;;9.30;;
61907;SDS011;47864;52.526;19.672;2023-04-08T09:12:54;13.13;;;9.23;;
61907;SDS011;47864;52.526;19.672;2023-04-08T09:15:08;15.18;;;10.88;;
61907;SDS011;47864;52.526;19.672;2023-04-08T09:19:11;17.30;;;10.63;;
61907;SDS011;47864;52.526;19.672;2023-04-08T09:21:13;13.23;;;9.35;;
61907;SDS011;47864;52.526;19.672;2023-04-08T09:23:16;15.43;;;10.75;;
61907;SDS011;47864;52.526;19.672;2023-04-08T09:25:24;15.10;;;10.57;;
61907;SDS011;47864;52.526;19.672;2023-04-08T09:27:35;16.20;;;10.63;;
61907;SDS011;47864;52.526;19.672;2023-04-08T09:29:36;16.52;;;11.32;;
61907;SDS011;47864;52.526;19.672;2023-04-08T09:31:40;14.90;;;10.30;;
61907;SDS011;47864;52.526;19.672;2023-04-08T09:33:41;16.05;;;10.38;;
61907;SDS011;47864;52.526;19.672;2023-04-08T09:35:43;15.50;;;10.18;;
61907;SDS011;47864;52.526;19.672;2023-04-08T09:37:45;17.83;;;10.38;;
61907;SDS011;47864;52.526;19.672;2023-04-08T09:39:46;16.60;;;10.75;;
61907;SDS011;47864;52.526;19.672;2023-04-08T09:41:48;14.85;;;9.75;;
61907;SDS011;47864;52.526;19.672;2023-04-08T09:45:54;14.45;;;9.90;;
61907;SDS011;47864;52.526;19.672;2023-04-08T09:47:59;18.75;;;10.38;;
61907;SDS011;47864;52.526;19.672;2023-04-08T09:50:10;17.35;;;10.80;;
61907;SDS011;47864;52.526;19.672;2023-04-08T09:52:29;14.55;;;10.13;;
61907;SDS011;47864;52.526;19.672;2023-04-08T09:54:51;16.48;;;11.02;;
61907;SDS011;47864;52.526;19.672;2023-04-08T09:56:53;15.13;;;10.85;;
61907;SDS011;47864;52.526;19.672;2023-04-08T09:59:16;18.98;;;12.75;;
61907;SDS011;47864;52.526;19.672;2023-04-08T10:01:21;17.45;;;11.35;;
61907;SDS011;47864;52.526;19.672;2023-04-08T10:03:29;18.33;;;12.30;;
61907;SDS011;47864;52.526;19.672;2023-04-08T10:05:37;17.25;;;12.07;;
61907;SDS011;47864;52.526;19.672;2023-04-08T10:07:41;21.77;;;14.52;;
61907;SDS011;47864;52.526;19.672;2023-04-08T10:09:43;22.40;;;13.82;;
61907;SDS011;47864;52.526;19.672;2023-04-08T10:11:45;24.15;;;15.73;;
61907;SDS011;47864;52.526;19.672;2023-04-08T10:13:47;23.45;;;14.02;;
61907;SDS011;47864;52.526;19.672;2023-04-08T10:15:49;20.58;;;12.55;;
61907;SDS011;47864;52.526;19.672;2023-04-08T10:17:51;25.63;;;16.13;;
61907;SDS011;47864;52.526;19.672;2023-04-08T10:19:57;27.00;;;16.02;;
61907;SDS011;47864;52.526;19.672;2023-04-08T10:21:58;22.02;;;13.88;;
61907;SDS011;47864;52.526;19.672;2023-04-08T10:23:59;24.67;;;15.60;;
61907;SDS011;47864;52.526;19.672;2023-04-08T10:26:02;22.30;;;15.90;;
61907;SDS011;47864;52.526;19.672;2023-04-08T10:28:30;20.52;;;13.35;;
61907;SDS011;47864;52.526;19.672;2023-04-08T10:32:38;21.83;;;14.68;;
61907;SDS011;47864;52.526;19.672;2023-04-08T10:34:49;20.08;;;13.82;;
61907;SDS011;47864;52.526;19.672;2023-04-08T10:36:53;21.08;;;14.25;;
61907;SDS011;47864;52.526;19.672;2023-04-08T10:38:56;21.58;;;13.80;;
61907;SDS011;47864;52.526;19.672;2023-04-08T10:40:57;19.80;;;13.85;;
61907;SDS011;47864;52.526;19.672;2023-04-08T10:42:59;23.10;;;15.20;;
61907;SDS011;47864;52.526;19.672;2023-04-08T10:45:00;22.55;;;15.32;;
61907;SDS011;47864;52.526;19.672;2023-04-08T10:47:02;21.85;;;14.05;;
61907;SDS011;47864;52.526;19.672;2023-04-08T10:49:03;22.25;;;15.02;;
61907;SDS011;47864;52.526;19.672;2023-04-08T10:51:05;20.50;;;14.20;;
61907;SDS011;47864;52.526;19.672;2023-04-08T10:53:06;22.75;;;14.80;;
61907;SDS011;47864;52.526;19.672;2023-04-08T10:55:08;22.38;;;14.07;;
61907;SDS011;47864;52.526;19.672;2023-04-08T10:57:09;21.70;;;14.02;;
61907;SDS011;47864;52.526;19.672;2023-04-08T10:59:11;21.45;;;13.88;;
61907;SDS011;47864;52.526;19.672;2023-04-08T11:01:13;21.65;;;13.45;;
61907;SDS011;47864;52.526;19.672;2023-04-08T11:03:15;20.85;;;13.63;;
61907;SDS011;47864;52.526;19.672;2023-04-08T11:05:17;17.17;;;12.38;;
61907;SDS011;47864;52.526;19.672;2023-04-08T11:07:24;20.00;;;12.90;;
61907;SDS011;47864;52.526;19.672;2023-04-08T11:09:26;19.38;;;12.05;;
61907;SDS011;47864;52.526;19.672;2023-04-08T11:11:27;18.95;;;12.68;;
61907;SDS011;47864;52.526;19.672;2023-04-08T11:13:30;18.85;;;12.98;;
61907;SDS011;47864;52.526;19.672;2023-04-08T11:15:33;19.70;;;13.02;;
61907;SDS011;47864;52.526;19.672;2023-04-08T11:17:36;32.95;;;19.98;;
61907;SDS011;47864;52.526;19.672;2023-04-08T11:19:37;18.80;;;13.32;;
61907;SDS011;47864;52.526;19.672;2023-04-08T11:21:39;24.75;;;15.07;;
61907;SDS011;47864;52.526;19.672;2023-04-08T11:23:41;26.67;;;15.18;;
61907;SDS011;47864;52.526;19.672;2023-04-08T11:25:43;23.70;;;15.63;;
61907;SDS011;47864;52.526;19.672;2023-04-08T11:27:46;19.85;;;13.00;;
61907;SDS011;47864;52.526;19.672;2023-04-08T11:29:49;20.17;;;13.25;;
61907;SDS011;47864;52.526;19.672;2023-04-08T11:31:55;22.20;;;13.32;;
61907;SDS011;47864;52.526;19.672;2023-04-08T11:33:57;18.95;;;12.88;;
61907;SDS011;47864;52.526;19.672;2023-04-08T11:35:59;21.83;;;13.73;;
61907;SDS011;47864;52.526;19.672;2023-04-08T11:38:03;17.40;;;12.38;;
61907;SDS011;47864;52.526;19.672;2023-04-08T11:40:06;19.80;;;12.50;;
61907;SDS011;47864;52.526;19.672;2023-04-08T11:42:27;19.05;;;12.27;;
61907;SDS011;47864;52.526;19.672;2023-04-08T11:44:32;18.35;;;12.20;;
61907;SDS011;47864;52.526;19.672;2023-04-08T11:46:34;17.27;;;11.90;;
61907;SDS011;47864;52.526;19.672;2023-04-08T11:48:36;17.75;;;12.23;;
61907;SDS011;47864;52.526;19.672;2023-04-08T11:50:38;18.33;;;12.45;;
61907;SDS011;47864;52.526;19.672;2023-04-08T11:54:44;16.58;;;11.48;;
61907;SDS011;47864;52.526;19.672;2023-04-08T11:56:45;23.10;;;12.63;;
61907;SDS011;47864;52.526;19.672;2023-04-08T11:58:47;20.65;;;12.10;;
61907;SDS011;47864;52.526;19.672;2023-04-08T12:00:49;16.38;;;11.05;;
61907;SDS011;47864;52.526;19.672;2023-04-08T12:02:50;17.38;;;11.13;;
61907;SDS011;47864;52.526;19.672;2023-04-08T12:04:52;15.23;;;11.20;;